createdAt,value
2023-07-15T00:01:54.565Z,25.40
2023-07-15T00:04:23.920Z,25.50
2023-07-15T00:06:51.874Z,25.50
2023-07-15T00:09:23.936Z,25.50
2023-07-15T00:11:52.098Z,25.50
2023-07-15T00:14:22.417Z,25.60
2023-07-15T00:16:51.813Z,25.60
2023-07-15T00:19:20.477Z,25.60
2023-07-15T00:21:51.033Z,25.70
2023-07-15T00:24:19.368Z,25.60
2023-07-15T00:26:49.373Z,25.60
2023-07-15T00:29:17.648Z,25.60
2023-07-15T00:31:46.040Z,25.60
2023-07-15T00:34:14.386Z,25.60
2023-07-15T00:36:42.698Z,25.60
2023-07-15T00:39:12.001Z,25.50
2023-07-15T00:41:40.392Z,25.50
2023-07-15T00:44:15.651Z,25.50
2023-07-15T00:47:16.162Z,25.50
2023-07-15T00:49:45.860Z,25.50
2023-07-15T00:52:17.214Z,25.50
2023-07-15T00:54:48.360Z,25.50
2023-07-15T00:57:18.647Z,25.50
2023-07-15T00:59:49.217Z,25.40
2023-07-15T01:02:18.521Z,25.40
2023-07-15T01:04:48.225Z,25.40
2023-07-15T01:07:16.478Z,25.40
2023-07-15T01:09:45.192Z,25.40
2023-07-15T01:12:13.797Z,25.40
2023-07-15T01:14:42.383Z,25.40
2023-07-15T01:17:10.340Z,25.40
2023-07-15T01:19:39.633Z,25.30
2023-07-15T01:22:09.755Z,25.40
2023-07-15T01:24:40.282Z,25.30
2023-07-15T01:27:10.135Z,25.40
2023-07-15T01:29:38.356Z,25.30
2023-07-15T01:32:07.758Z,25.30
2023-07-15T01:34:37.402Z,25.30
2023-07-15T01:37:05.884Z,25.30
2023-07-15T01:39:34.817Z,25.30
2023-07-15T01:42:04.093Z,26.50
2023-07-15T01:44:32.092Z,25.30
2023-07-15T01:47:00.420Z,25.20
2023-07-15T01:49:28.805Z,25.20
2023-07-15T01:51:56.780Z,25.30
2023-07-15T01:54:24.743Z,25.20
2023-07-15T01:56:52.629Z,25.20
2023-07-15T01:59:21.924Z,25.10
2023-07-15T02:01:51.072Z,25.10
2023-07-15T02:04:19.695Z,24.60
2023-07-15T02:06:47.860Z,25.10
2023-07-15T02:09:15.749Z,25.10
2023-07-15T02:11:44.136Z,25.10
2023-07-15T02:14:12.058Z,25.00
2023-07-15T02:16:41.486Z,25.00
2023-07-15T02:19:09.978Z,25.00
2023-07-15T02:21:38.089Z,24.90
2023-07-15T02:24:06.488Z,24.90
2023-07-15T02:26:34.388Z,24.90
2023-07-15T02:29:02.569Z,24.90
2023-07-15T02:31:30.786Z,26.30
2023-07-15T02:33:59.152Z,24.80
2023-07-15T02:36:27.302Z,24.80
2023-07-15T02:38:55.332Z,24.80
2023-07-15T02:41:23.254Z,24.80
2023-07-15T02:43:51.276Z,24.70
2023-07-15T02:46:19.704Z,24.70
2023-07-15T02:48:48.059Z,24.60
2023-07-15T02:51:17.783Z,24.60
2023-07-15T02:53:46.156Z,24.50
2023-07-15T02:56:14.253Z,24.50
2023-07-15T02:58:42.601Z,24.50
2023-07-15T03:01:10.744Z,24.50
2023-07-15T03:03:39.451Z,24.40
2023-07-15T03:06:07.657Z,24.40
2023-07-15T03:08:37.206Z,24.40
2023-07-15T03:11:09.092Z,24.40
2023-07-15T03:13:37.169Z,24.30
2023-07-15T03:16:06.659Z,24.30
2023-07-15T03:18:36.668Z,24.30
2023-07-15T03:21:04.710Z,24.20
2023-07-15T03:23:32.637Z,24.20
2023-07-15T03:26:01.906Z,24.20
2023-07-15T03:28:30.024Z,24.20
2023-07-15T03:30:57.938Z,24.10
2023-07-15T03:33:26.459Z,24.20
2023-07-15T03:35:54.336Z,24.10
2023-07-15T03:38:22.306Z,24.00
2023-07-15T03:40:51.612Z,24.00
2023-07-15T03:43:21.311Z,23.90
2023-07-15T03:45:49.901Z,23.80
2023-07-15T03:48:17.980Z,23.80
2023-07-15T03:50:46.727Z,23.90
2023-07-15T03:53:14.974Z,23.90
2023-07-15T03:55:43.105Z,23.90
2023-07-15T03:58:11.041Z,23.90
2023-07-15T04:00:40.301Z,23.90
2023-07-15T04:03:08.755Z,23.90
2023-07-15T04:05:36.742Z,23.90
2023-07-15T04:08:04.730Z,23.80
2023-07-15T04:10:32.793Z,23.80
2023-07-15T04:13:00.754Z,23.80
2023-07-15T04:15:28.851Z,23.70
2023-07-15T04:17:58.174Z,23.70
2023-07-15T04:20:26.333Z,23.70
2023-07-15T04:22:54.603Z,23.70
2023-07-15T04:25:22.528Z,23.70
2023-07-15T04:27:50.720Z,23.70
2023-07-15T04:30:18.846Z,23.60
2023-07-15T04:32:47.771Z,23.60
2023-07-15T04:35:20.746Z,23.70
2023-07-15T04:37:48.806Z,23.70
2023-07-15T04:40:16.920Z,23.70
2023-07-15T04:42:46.716Z,23.80
2023-07-15T04:45:15.449Z,23.80
2023-07-15T04:47:43.785Z,23.90
2023-07-15T04:50:12.845Z,23.90
2023-07-15T04:52:42.267Z,23.90
2023-07-15T04:55:12.431Z,23.90
2023-07-15T04:57:40.853Z,24.00
2023-07-15T05:00:12.162Z,24.00
2023-07-15T05:02:40.494Z,24.10
2023-07-15T05:05:09.356Z,24.10
2023-07-15T05:07:55.585Z,24.20
2023-07-15T05:10:26.727Z,24.20
2023-07-15T05:12:54.624Z,24.20
2023-07-15T05:15:23.345Z,24.20
2023-07-15T05:17:51.590Z,24.20
2023-07-15T05:20:20.482Z,24.20
2023-07-15T05:22:49.724Z,24.20
2023-07-15T05:25:18.187Z,24.30
2023-07-15T05:27:48.207Z,24.30
2023-07-15T05:30:16.213Z,24.40
2023-07-15T05:32:44.287Z,24.40
2023-07-15T05:35:12.732Z,24.40
2023-07-15T05:37:41.539Z,24.50
2023-07-15T05:40:11.832Z,24.50
2023-07-15T05:42:40.602Z,24.50
2023-07-15T05:45:11.652Z,24.50
2023-07-15T05:47:39.931Z,24.60
2023-07-15T05:50:09.431Z,24.80
2023-07-15T05:52:37.723Z,24.70
2023-07-15T05:55:06.969Z,24.80
2023-07-15T05:57:35.260Z,24.80
2023-07-15T06:00:03.381Z,24.80
2023-07-15T06:02:33.397Z,24.00
2023-07-15T06:05:01.474Z,24.90
2023-07-15T06:07:29.806Z,25.00
2023-07-15T06:09:57.681Z,25.10
2023-07-15T06:12:26.145Z,25.10
2023-07-15T06:14:54.321Z,25.20
2023-07-15T06:17:23.839Z,25.20
2023-07-15T06:19:53.556Z,25.30
2023-07-15T06:22:21.627Z,25.30
2023-07-15T06:24:50.858Z,25.40
2023-07-15T06:27:19.041Z,25.40
2023-07-15T06:29:49.300Z,25.50
2023-07-15T06:32:17.960Z,25.60
2023-07-15T06:34:45.901Z,25.60
2023-07-15T06:37:15.243Z,25.70
2023-07-15T06:39:43.381Z,25.70
2023-07-15T06:42:11.424Z,25.80
2023-07-15T06:44:41.239Z,25.90
2023-07-15T06:47:11.238Z,25.90
2023-07-15T06:49:39.207Z,26.00
2023-07-15T06:52:09.048Z,26.00
2023-07-15T06:54:38.702Z,26.10
2023-07-15T06:57:06.945Z,26.20
2023-07-15T06:59:34.882Z,26.20
2023-07-15T07:02:02.890Z,26.30
2023-07-15T07:04:30.865Z,26.50
2023-07-15T07:06:58.806Z,26.40
2023-07-15T07:09:26.850Z,26.40
2023-07-15T07:11:59.142Z,26.40
2023-07-15T07:14:27.521Z,26.40
2023-07-15T07:16:55.506Z,26.50
2023-07-15T07:19:23.415Z,26.50
2023-07-15T07:21:51.443Z,26.60
2023-07-15T07:24:19.712Z,26.60
2023-07-15T07:26:49.405Z,26.70
2023-07-15T07:29:18.932Z,26.70
2023-07-15T07:31:46.856Z,26.70
2023-07-15T07:34:14.936Z,26.80
2023-07-15T07:36:42.925Z,26.80
2023-07-15T07:39:10.960Z,26.90
2023-07-15T07:41:38.823Z,26.90
2023-07-15T07:44:06.939Z,26.90
2023-07-15T07:46:36.585Z,27.00
2023-07-15T07:49:04.524Z,27.10
2023-07-15T07:51:32.489Z,27.20
2023-07-15T07:54:00.480Z,27.20
2023-07-15T07:56:28.943Z,27.30
2023-07-15T07:58:58.897Z,27.40
2023-07-15T08:01:27.025Z,27.40
2023-07-15T08:03:56.911Z,27.40
2023-07-15T08:06:25.714Z,27.50
2023-07-15T08:08:53.823Z,27.60
2023-07-15T08:11:21.775Z,27.70
2023-07-15T08:13:50.515Z,27.60
2023-07-15T08:16:33.100Z,27.60
2023-07-15T08:19:03.941Z,27.60
2023-07-15T08:21:32.454Z,27.60
2023-07-15T08:24:00.496Z,27.80
2023-07-15T08:26:28.827Z,27.50
2023-07-15T08:28:59.194Z,27.80
2023-07-15T08:31:27.951Z,28.10
2023-07-15T08:33:56.073Z,27.90
2023-07-15T08:36:25.434Z,28.00
2023-07-15T08:38:53.340Z,28.10
2023-07-15T08:41:24.202Z,28.20
2023-07-15T08:43:52.465Z,28.40
2023-07-15T08:46:28.847Z,28.40
2023-07-15T08:48:58.097Z,28.50
2023-07-15T08:51:31.533Z,28.50
2023-07-15T08:54:01.486Z,28.60
2023-07-15T08:56:31.189Z,28.70
2023-07-15T08:58:59.862Z,28.60
2023-07-15T09:01:27.971Z,28.60
2023-07-15T09:03:55.933Z,28.60
2023-07-15T09:06:24.504Z,28.60
2023-07-15T09:08:54.020Z,28.60
2023-07-15T09:11:22.229Z,28.60
2023-07-15T09:13:51.002Z,28.50
2023-07-15T09:16:19.409Z,28.40
2023-07-15T09:18:48.699Z,28.40
2023-07-15T09:21:19.416Z,28.40
2023-07-15T09:23:48.368Z,28.40
2023-07-15T09:26:21.728Z,28.50
2023-07-15T09:28:50.956Z,28.40
2023-07-15T09:31:26.292Z,28.50
2023-07-15T09:34:04.473Z,28.50
2023-07-15T09:36:33.298Z,28.50
2023-07-15T09:39:05.230Z,28.80
2023-07-15T09:41:34.573Z,28.70
2023-07-15T09:44:02.567Z,28.70
2023-07-15T09:46:32.699Z,28.70
2023-07-15T09:49:00.898Z,28.80
2023-07-15T09:51:29.666Z,28.70
2023-07-15T09:53:59.938Z,28.80
2023-07-15T09:56:32.581Z,28.80
2023-07-15T09:59:09.224Z,28.90
2023-07-15T10:01:42.635Z,28.90
2023-07-15T10:04:19.060Z,29.00
2023-07-15T10:06:48.220Z,29.00
2023-07-15T10:09:16.500Z,29.00
2023-07-15T10:11:44.804Z,29.00
2023-07-15T10:14:15.249Z,29.00
2023-07-15T10:16:43.266Z,29.00
2023-07-15T10:19:39.510Z,29.00
2023-07-15T10:22:07.799Z,29.00
2023-07-15T10:24:35.796Z,29.00
2023-07-15T10:27:07.791Z,29.00
2023-07-15T10:29:39.202Z,29.00
2023-07-15T10:32:13.079Z,29.00
2023-07-15T10:34:43.453Z,28.90
2023-07-15T10:37:15.445Z,29.00
2023-07-15T10:39:43.633Z,29.00
2023-07-15T10:42:14.012Z,28.90
2023-07-15T10:44:45.641Z,28.90
2023-07-15T10:47:16.101Z,28.90
2023-07-15T10:49:44.857Z,28.90
2023-07-15T10:52:13.781Z,28.90
2023-07-15T10:54:42.609Z,29.00
2023-07-15T10:57:12.006Z,29.10
2023-07-15T10:59:41.490Z,29.10
2023-07-15T11:02:12.277Z,29.20
2023-07-15T11:04:42.311Z,29.30
2023-07-15T11:07:11.371Z,29.30
2023-07-15T11:09:40.592Z,29.40
2023-07-15T11:12:10.384Z,29.40
2023-07-15T11:14:41.535Z,29.50
2023-07-15T11:17:13.296Z,29.60
2023-07-15T11:19:43.324Z,29.70
2023-07-15T11:22:12.487Z,29.70
2023-07-15T11:24:40.535Z,29.70
2023-07-15T11:27:11.222Z,29.70
2023-07-15T11:29:39.182Z,29.70
2023-07-15T11:32:10.167Z,29.70
2023-07-15T11:34:38.208Z,29.70
2023-07-15T11:37:09.194Z,29.70
2023-07-15T11:39:41.893Z,29.70
2023-07-15T11:42:11.143Z,29.80
2023-07-15T11:44:39.296Z,29.80
2023-07-15T11:47:08.888Z,29.90
2023-07-15T11:49:45.602Z,29.90
2023-07-15T11:52:22.299Z,29.90
2023-07-15T11:54:51.212Z,29.90
2023-07-15T11:57:26.773Z,30.70
2023-07-15T11:59:54.751Z,29.80
2023-07-15T12:02:24.307Z,29.80
2023-07-15T12:04:56.977Z,29.90
2023-07-15T12:07:24.941Z,29.90
2023-07-15T12:10:07.630Z,29.90
2023-07-15T12:12:35.858Z,29.90
2023-07-15T12:15:04.804Z,29.90
2023-07-15T12:17:32.838Z,29.90
2023-07-15T12:20:02.279Z,29.90
2023-07-15T12:22:30.512Z,30.00
2023-07-15T12:24:58.529Z,30.00
2023-07-15T12:27:26.731Z,30.00
2023-07-15T12:29:57.428Z,30.00
2023-07-15T12:32:29.014Z,30.10
2023-07-15T12:34:57.166Z,30.10
2023-07-15T12:37:26.409Z,30.10
2023-07-15T12:39:54.383Z,30.20
2023-07-15T12:42:22.309Z,30.20
2023-07-15T12:44:51.444Z,30.20
2023-07-15T12:47:19.499Z,30.20
2023-07-15T12:49:48.305Z,30.20
2023-07-15T12:52:16.181Z,30.20
2023-07-15T12:54:45.966Z,30.20
2023-07-15T12:57:13.945Z,30.20
2023-07-15T12:59:42.582Z,30.10
2023-07-15T13:02:10.735Z,30.10
2023-07-15T13:04:38.701Z,30.10
2023-07-15T13:07:07.567Z,30.10
2023-07-15T13:09:35.460Z,30.20
2023-07-15T13:12:07.819Z,30.20
2023-07-15T13:14:36.286Z,30.20
2023-07-15T13:17:04.302Z,30.30
2023-07-15T13:19:33.585Z,30.40
2023-07-15T13:22:01.610Z,30.30
2023-07-15T13:24:31.332Z,30.40
2023-07-15T13:26:59.291Z,30.50
2023-07-15T13:29:30.751Z,30.60
2023-07-15T13:31:58.706Z,30.60
2023-07-15T13:34:26.682Z,30.60
2023-07-15T13:36:54.700Z,30.60
2023-07-15T13:39:37.186Z,30.60
2023-07-15T13:42:06.100Z,30.60
2023-07-15T13:44:36.058Z,30.60
2023-07-15T13:47:04.896Z,30.50
2023-07-15T13:49:33.634Z,30.50
2023-07-15T13:52:02.210Z,30.40
2023-07-15T13:54:33.433Z,30.30
2023-07-15T13:57:03.618Z,30.30
2023-07-15T13:59:31.521Z,30.30
2023-07-15T14:02:00.892Z,30.30
2023-07-15T14:04:28.994Z,30.30
2023-07-15T14:06:57.081Z,30.40
2023-07-15T14:09:25.231Z,32.20
2023-07-15T14:11:53.226Z,30.50
2023-07-15T14:14:21.163Z,30.50
2023-07-15T14:16:49.412Z,30.60
2023-07-15T14:19:19.196Z,30.60
2023-07-15T14:21:48.401Z,30.80
2023-07-15T14:24:16.394Z,30.80
2023-07-15T14:26:45.184Z,30.90
2023-07-15T14:29:13.057Z,31.00
2023-07-15T14:31:41.458Z,31.10
2023-07-15T14:34:11.747Z,31.20
2023-07-15T14:36:41.173Z,31.30
2023-07-15T14:39:09.436Z,31.40
2023-07-15T14:41:39.152Z,31.40
2023-07-15T14:44:08.075Z,31.40
2023-07-15T14:46:37.240Z,31.50
2023-07-15T14:49:05.344Z,31.60
2023-07-15T14:51:33.393Z,31.60
2023-07-15T14:54:02.617Z,31.60
2023-07-15T14:56:30.601Z,31.60
2023-07-15T14:58:58.633Z,31.60
2023-07-15T15:01:28.324Z,31.70
2023-07-15T15:03:58.938Z,31.80
2023-07-15T15:06:27.497Z,31.90
2023-07-15T15:08:55.506Z,32.00
2023-07-15T15:11:27.233Z,32.20
2023-07-15T15:13:55.459Z,32.30
2023-07-15T15:16:23.448Z,32.50
2023-07-15T15:18:51.485Z,32.60
2023-07-15T15:21:19.485Z,32.70
2023-07-15T15:23:49.478Z,32.70
2023-07-15T15:26:17.482Z,32.60
2023-07-15T15:28:49.115Z,32.50
2023-07-15T15:31:17.577Z,32.30
2023-07-15T15:33:45.905Z,31.90
2023-07-15T15:36:13.900Z,31.60
2023-07-15T15:38:41.807Z,31.30
2023-07-15T15:41:10.049Z,31.00
2023-07-15T15:43:38.052Z,30.60
2023-07-15T15:46:07.772Z,30.10
2023-07-15T15:48:35.937Z,29.80
2023-07-15T15:51:04.771Z,29.30
2023-07-15T15:53:33.021Z,28.90
2023-07-15T15:56:00.946Z,28.60
2023-07-15T15:58:28.906Z,28.40
2023-07-15T16:00:57.368Z,28.30
2023-07-15T16:03:30.071Z,28.30
2023-07-15T16:05:59.243Z,28.30
2023-07-15T16:08:28.290Z,28.40
2023-07-15T16:10:56.390Z,28.50
2023-07-15T16:13:24.374Z,28.60
2023-07-15T16:15:52.465Z,28.70
2023-07-15T16:18:21.078Z,28.80
2023-07-15T16:20:51.256Z,29.00
2023-07-15T16:23:19.403Z,29.10
2023-07-15T16:25:48.626Z,29.30
2023-07-15T16:28:16.635Z,29.40
2023-07-15T16:30:44.945Z,29.50
2023-07-15T16:33:13.034Z,29.40
2023-07-15T16:35:41.047Z,29.30
2023-07-15T16:38:10.466Z,29.20
2023-07-15T16:40:38.326Z,29.00
2023-07-15T16:43:06.467Z,28.90
2023-07-15T16:45:34.522Z,28.70
2023-07-15T16:48:03.473Z,28.50
2023-07-15T16:50:31.373Z,28.40
2023-07-15T16:52:59.412Z,28.20
2023-07-15T16:55:28.957Z,26.00
2023-07-15T16:57:56.891Z,27.80
2023-07-15T17:00:24.860Z,27.70
2023-07-15T17:02:52.852Z,27.60
2023-07-15T17:05:21.575Z,27.50
2023-07-15T17:07:50.486Z,26.20
2023-07-15T17:10:18.675Z,27.30
2023-07-15T17:12:48.722Z,27.20
2023-07-15T17:15:16.816Z,27.20
2023-07-15T17:17:44.809Z,27.20
2023-07-15T17:20:13.468Z,27.20
2023-07-15T17:22:41.607Z,27.20
2023-07-15T17:25:10.650Z,27.20
2023-07-15T17:27:38.633Z,27.20
2023-07-15T17:30:09.739Z,27.20
2023-07-15T17:32:37.647Z,27.10
2023-07-15T17:35:06.117Z,27.10
2023-07-15T17:37:34.089Z,27.00
2023-07-15T17:40:02.075Z,27.00
2023-07-15T17:42:30.486Z,27.00
2023-07-15T17:44:58.399Z,26.90
2023-07-15T17:47:27.781Z,26.90
2023-07-15T17:49:55.783Z,26.90
2023-07-15T17:52:23.850Z,26.90
2023-07-15T17:54:51.750Z,26.90
2023-07-15T17:57:19.870Z,27.20
2023-07-15T17:59:48.476Z,27.00
2023-07-15T18:02:16.439Z,27.00
2023-07-15T18:04:50.967Z,26.90
2023-07-15T18:07:20.257Z,26.90
2023-07-15T18:09:49.399Z,26.90
2023-07-15T18:12:18.793Z,26.90
2023-07-15T18:14:46.905Z,26.80
2023-07-15T18:17:14.789Z,26.70
2023-07-15T18:19:42.657Z,26.70
2023-07-15T18:22:11.981Z,26.70
2023-07-15T18:24:39.903Z,26.60
2023-07-15T18:27:08.265Z,26.60
2023-07-15T18:29:36.300Z,26.50
2023-07-15T18:32:04.547Z,26.50
2023-07-15T18:34:32.539Z,26.50
2023-07-15T18:37:00.492Z,26.50
2023-07-15T18:39:29.927Z,26.50
2023-07-15T18:41:58.024Z,26.40
2023-07-15T18:44:26.066Z,26.40
2023-07-15T18:46:54.062Z,26.40
2023-07-15T18:49:21.982Z,26.40
2023-07-15T18:51:51.774Z,26.30
2023-07-15T18:54:19.775Z,26.30
2023-07-15T18:56:49.099Z,26.20
2023-07-15T18:59:17.297Z,26.20
2023-07-15T19:01:45.271Z,26.20
2023-07-15T19:04:14.279Z,26.20
2023-07-15T19:06:42.354Z,26.30
2023-07-15T19:09:10.605Z,26.10
2023-07-15T19:11:38.703Z,26.10
2023-07-15T19:14:08.589Z,26.00
2023-07-15T19:16:38.480Z,26.00
2023-07-15T19:19:06.574Z,26.00
2023-07-15T19:21:34.537Z,26.00
2023-07-15T19:24:02.637Z,25.90
2023-07-15T19:26:30.658Z,25.90
2023-07-15T19:28:58.564Z,25.90
2023-07-15T19:31:28.008Z,25.80
2023-07-15T19:33:57.892Z,25.80
2023-07-15T19:36:26.263Z,25.90
2023-07-15T19:38:54.232Z,25.80
2023-07-15T19:41:22.158Z,25.70
2023-07-15T19:43:50.904Z,25.70
2023-07-15T19:46:19.146Z,25.70
2023-07-15T19:48:49.770Z,25.70
2023-07-15T19:51:22.365Z,25.70
2023-07-15T19:53:59.578Z,25.60
2023-07-15T19:56:27.780Z,25.60
2023-07-15T19:58:55.736Z,25.50
2023-07-15T20:01:23.731Z,25.40
2023-07-15T20:03:53.216Z,25.40
2023-07-15T20:06:21.328Z,25.40
2023-07-15T20:08:49.909Z,25.40
2023-07-15T20:11:17.817Z,25.40
2023-07-15T20:13:45.743Z,25.40
2023-07-15T20:16:14.145Z,25.40
2023-07-15T20:18:42.422Z,25.40
2023-07-15T20:21:11.785Z,25.30
2023-07-15T20:23:39.705Z,25.30
2023-07-15T20:26:08.060Z,25.20
2023-07-15T20:28:36.168Z,25.10
2023-07-15T20:31:04.544Z,25.10
2023-07-15T20:33:32.550Z,25.10
2023-07-15T20:36:00.528Z,25.00
2023-07-15T20:38:30.120Z,25.00
2023-07-15T20:40:59.678Z,24.90
2023-07-15T20:43:28.770Z,24.90
2023-07-15T20:45:56.731Z,24.80
2023-07-15T20:48:24.721Z,24.80
2023-07-15T20:50:52.637Z,24.70
2023-07-15T20:53:21.097Z,24.70
2023-07-15T20:55:51.016Z,24.60
2023-07-15T20:58:19.024Z,24.60
2023-07-15T21:00:51.578Z,24.60
2023-07-15T21:03:20.021Z,24.50
2023-07-15T21:05:58.361Z,24.50
2023-07-15T21:08:26.646Z,24.40
2023-07-15T21:10:56.776Z,24.40
2023-07-15T21:13:25.707Z,24.40
2023-07-15T21:15:53.667Z,24.30
2023-07-15T21:18:23.609Z,24.30
2023-07-15T21:20:52.821Z,24.20
2023-07-15T21:23:21.981Z,24.40
2023-07-15T21:25:52.417Z,24.20
2023-07-15T21:28:33.799Z,24.10
2023-07-15T21:31:02.131Z,24.10
2023-07-15T21:33:30.908Z,24.10
2023-07-15T21:35:59.030Z,24.00
2023-07-15T21:38:27.730Z,24.00
2023-07-15T21:40:55.827Z,23.90
2023-07-15T21:43:25.263Z,23.90
2023-07-15T21:45:53.316Z,23.90
2023-07-15T21:48:22.099Z,23.80
2023-07-15T21:50:51.000Z,23.70
2023-07-15T21:53:19.995Z,22.50
2023-07-15T21:55:48.831Z,23.60
2023-07-15T21:58:18.014Z,23.60
2023-07-15T22:00:47.537Z,23.60
2023-07-15T22:03:15.789Z,23.50
2023-07-15T22:05:46.815Z,23.40
2023-07-15T22:08:14.780Z,23.40
2023-07-15T22:10:42.957Z,23.30
2023-07-15T22:13:11.019Z,23.30
2023-07-15T22:15:39.117Z,23.30
2023-07-15T22:18:08.706Z,23.20
2023-07-15T22:20:36.820Z,23.20
2023-07-15T22:23:04.871Z,23.10
2023-07-15T22:25:33.230Z,23.10
2023-07-15T22:28:01.373Z,23.10
2023-07-15T22:30:30.159Z,23.10
2023-07-15T22:32:58.291Z,23.00
2023-07-15T22:35:27.730Z,23.00
2023-07-15T22:37:55.729Z,22.90
2023-07-15T22:40:24.097Z,22.90
2023-07-15T22:42:52.080Z,22.90
2023-07-15T22:45:20.017Z,22.90
2023-07-15T22:47:47.977Z,22.80
2023-07-15T22:50:16.311Z,22.80
2023-07-15T22:52:45.724Z,22.80
2023-07-15T22:55:13.611Z,22.70
2023-07-15T22:57:41.926Z,22.70
2023-07-15T23:00:11.118Z,22.60
2023-07-15T23:02:39.208Z,22.60
2023-07-15T23:05:08.118Z,22.50
2023-07-15T23:07:36.086Z,22.50
2023-07-15T23:10:06.222Z,22.40
2023-07-15T23:12:34.248Z,22.40
2023-07-15T23:15:02.239Z,22.40
2023-07-15T23:17:30.946Z,22.30
2023-07-15T23:20:07.976Z,22.30
2023-07-15T23:22:36.868Z,22.30
2023-07-15T23:25:07.065Z,22.20
2023-07-15T23:27:35.529Z,22.20
2023-07-15T23:30:03.453Z,22.20
2023-07-15T23:32:31.516Z,22.20
2023-07-15T23:34:59.504Z,22.10
2023-07-15T23:37:30.990Z,22.10
2023-07-15T23:39:58.814Z,22.00
2023-07-15T23:42:28.798Z,22.00
2023-07-15T23:44:56.697Z,22.00
2023-07-15T23:47:24.754Z,22.00
2023-07-15T23:49:52.820Z,21.90
2023-07-15T23:52:22.473Z,21.90
2023-07-15T23:54:50.914Z,21.90
2023-07-15T23:57:18.898Z,21.90
2023-07-15T23:59:48.778Z,21.90
